LEBG Información de aeropuertos

Información de pistas
Pista 06 Longitud 4393 ft Ancho 98 ft
Elevación 2907 ft Umbral 0 ft Rumbo 56
Pista 24 Longitud 4393 ft Ancho 98 ft
Elevación 2945 ft Umbral 0 ft Rumbo 236
Frecuencias
Tipo UNIC Nombre UNIC Frequencia 122.4 MHZ
Radioayudas
Tipo NDB Nombre Burgos Frequencia 357 KHZ
Tipo VOR-DME Nombre Burgos Frequencia 111400 KHZ
Información meteorológica y NOTAM
ADDS - METARS form results

(1306 UTC 22 April 2021)
Data provider http://aviationweather.gov/metar/data/
 
METAR text: LEBG 221300Z 04011KT 9999 BKN006 BKN048 10/09 Q1015
Conditions at: LEBG (BURGOS/VILLAFRIA, ES) observed 1300 UTC 22 April 2021
Temperature: 10.0°C (50°F)
Dewpoint: 9.0°C (48°F) [RH = 93%]
Pressure (altimeter): 29.97 inches Hg (1015.0 mb)
Winds: from the NE (40 degrees) at 13 MPH (11 knots; 5.7 m/s)
Visibility: 6 or more miles (10+ km)
Ceiling: 600 feet AGL
Clouds: broken clouds at 600 feet AGL
broken clouds at 4800 feet AGL
Weather: no significant weather observed at this time

METAR text: LEBG 221230Z 04009KT 010V070 9999 SCT005 BKN045 10/09 Q1014
Conditions at: LEBG (BURGOS/VILLAFRIA, ES) observed 1230 UTC 22 April 2021
Temperature: 10.0°C (50°F)
Dewpoint: 9.0°C (48°F) [RH = 93%]
Pressure (altimeter): 29.94 inches Hg (1014.0 mb)
Winds: from the NE (40 degrees) at 10 MPH (9 knots; 4.6 m/s)
Visibility: 6 or more miles (10+ km)
Ceiling: 4500 feet AGL
Clouds: scattered clouds at 500 feet AGL
broken clouds at 4500 feet AGL
Weather: no significant weather observed at this time

Forecast for: LEBG (BURGOS/VILLAFRIA, ES)
Text: TAF LEBG 220800Z 2209/2309 07008KT 9999 BKN040 TX13/2215Z TN07/2306Z
Forecast period: 0900 UTC 22 April 2021 to 0900 UTC 23 April 2021
Forecast type: FROM: standard forecast or significant change
Winds: from the ENE (70 degrees) at 9 MPH (8 knots; 4.1 m/s)
Visibility: 6 or more miles (10+ km)
Ceiling: 4000 feet AGL
Clouds: broken clouds at 4000 feet AGL
Weather: no significant weather forecast for this period
Text: PROB30
Forecast period: 0900 to 1800 UTC 22 April 2021
Forecast type: TEMPORARY: The following changes expected for less than half the time period
Visibility: 1.86 miles (2.99 km)
Ceiling: 1200 feet AGL
Clouds: broken clouds at 1200 feet AGL
scattered clouds at 2500 feet AGL
Weather: SHRA RA  (rain showers, moderate rain)
Text: TEMPO 2209/2218 3000 SHRA RA BKN012 SCT025TCU
Forecast period: 0900 to 1100 UTC 22 April 2021
Forecast type: TEMPORARY: The following changes expected for less than half the time period
Visibility: missing
Ceiling: 600 feet AGL
Clouds: overcast cloud deck at 600 feet AGL
Weather: no significant weather forecast for this period